Time;durP1;ratioP1;P1;durP2;ratioP2;P2;SDS_P1;SDS_P2;PMS_P1;PMS_P2;Temp;Humidity;BMP_temperature;BMP_pressure;BME280_temperature;BME280_humidity;BME280_pressure;Samples;Min_cycle;Max_cycle;Signal;HPM_P1;HPM_P2
2021/05/21 00:01:22;;;;;;;3.20;2.28;;;;;;;18.37;42.14;101595.19;5079009;28;20473;-63
2021/05/21 00:03:49;;;;;;;7.68;2.90;;;;;;;18.35;42.34;101588.31;5092792;28;20957;-70
2021/05/21 00:06:16;;;;;;;5.68;2.80;;;;;;;18.33;42.51;101592.88;5080507;28;20626;-64
2021/05/21 00:08:42;;;;;;;5.65;2.65;;;;;;;18.30;42.30;101588.63;5072583;28;20044;-63
2021/05/21 00:11:09;;;;;;;5.97;2.72;;;;;;;18.29;42.45;101586.94;5072495;28;20049;-63
2021/05/21 00:13:36;;;;;;;4.35;2.80;;;;;;;18.27;42.31;101578.22;5072603;28;20139;-63
2021/05/21 00:16:03;;;;;;;5.15;2.72;;;;;;;18.25;42.29;101573.03;5072553;28;20048;-64
2021/05/21 00:18:30;;;;;;;3.50;2.45;;;;;;;18.24;42.27;101570.50;5072685;28;20482;-63
2021/05/21 00:20:57;;;;;;;4.05;2.53;;;;;;;18.21;42.59;101565.44;5072407;28;20040;-63
2021/05/21 00:23:23;;;;;;;5.43;2.70;;;;;;;18.20;42.04;101571.72;5072250;28;20052;-63
2021/05/21 00:25:50;;;;;;;5.50;2.67;;;;;;;18.18;41.86;101576.28;5072280;28;20049;-63
2021/05/21 00:28:17;;;;;;;4.55;2.63;;;;;;;18.17;41.76;101574.59;5072390;28;20052;-63
2021/05/21 00:30:43;;;;;;;4.13;2.83;;;;;;;18.15;41.96;101573.88;5072001;28;20053;-68
2021/05/21 00:33:10;;;;;;;4.28;2.78;;;;;;;18.12;41.86;101572.28;5072373;28;20041;-63
2021/05/21 00:35:37;;;;;;;6.35;2.38;;;;;;;18.09;41.85;101565.41;5072448;28;20503;-64
2021/05/21 00:38:05;;;;;;;6.82;2.83;;;;;;;18.07;41.35;101562.00;5072194;28;20046;-69
2021/05/21 00:40:32;;;;;;;4.25;2.75;;;;;;;18.06;41.07;101570.09;5071064;28;20079;-63
2021/05/21 00:42:59;;;;;;;5.05;2.50;;;;;;;18.03;40.71;101568.53;5072201;28;20040;-67
2021/05/21 00:45:25;;;;;;;3.65;2.25;;;;;;;18.02;40.71;101563.31;5072125;28;20044;-63
2021/05/21 00:47:52;;;;;;;3.78;2.20;;;;;;;18.00;40.54;101571.38;5072168;28;20041;-63
2021/05/21 00:50:19;;;;;;;3.22;2.28;;;;;;;17.98;40.07;101570.69;5071813;28;20132;-63
2021/05/21 00:52:46;;;;;;;4.00;2.40;;;;;;;17.97;39.92;101570.75;5072223;28;20048;-65
2021/05/21 00:55:13;;;;;;;5.03;2.70;;;;;;;17.94;40.05;101569.19;5072057;28;20095;-63
2021/05/21 00:57:43;;;;;;;6.70;2.92;;;;;;;17.91;40.01;101562.25;5072116;28;20040;-63
2021/05/21 01:00:11;;;;;;;2.78;2.10;;;;;;;17.90;39.98;101559.72;5072002;28;20048;-63
2021/05/21 01:02:38;;;;;;;3.90;2.20;;;;;;;17.88;39.94;101556.38;5071874;28;20502;-63
2021/05/21 01:05:06;;;;;;;5.80;2.67;;;;;;;17.87;39.71;101559.97;5071989;28;20048;-67
2021/05/21 01:07:33;;;;;;;6.20;2.30;;;;;;;17.85;39.65;101549.47;5072102;28;20048;-64
2021/05/21 01:10:00;;;;;;;5.30;2.78;;;;;;;17.85;39.79;101548.59;5071981;28;20488;-63
2021/05/21 01:12:27;;;;;;;3.60;2.08;;;;;;;17.82;39.66;101548.84;5071977;28;20045;-63
2021/05/21 01:14:56;;;;;;;3.55;1.98;;;;;;;17.76;40.65;101548.34;5071956;28;20578;-64
2021/05/21 01:17:24;;;;;;;2.85;2.20;;;;;;;17.71;41.26;101550.50;5071866;28;20083;-63
2021/05/21 01:19:52;;;;;;;3.53;2.30;;;;;;;17.68;41.67;101552.53;5071844;28;20052;-64
2021/05/21 01:22:19;;;;;;;4.72;2.50;;;;;;;17.65;41.37;101545.66;5071751;28;20051;-65
2021/05/21 01:24:46;;;;;;;4.85;2.58;;;;;;;17.62;41.15;101543.19;5071875;28;20459;-63
2021/05/21 01:27:13;;;;;;;5.03;2.85;;;;;;;17.62;41.05;101544.06;5071677;28;20048;-63
2021/05/21 01:29:40;;;;;;;3.83;2.65;;;;;;;17.61;40.84;101534.41;5071749;28;20057;-66
2021/05/21 01:32:09;;;;;;;6.38;2.88;;;;;;;17.61;41.03;101528.22;5071752;28;20041;-63
2021/05/21 01:34:38;;;;;;;7.28;2.85;;;;;;;17.60;41.04;101526.56;5071964;28;20408;-63
2021/05/21 01:37:20;;;;;;;5.70;3.00;;;;;;;17.57;41.27;101526.78;5071950;28;20052;-63
2021/05/21 01:39:50;;;;;;;4.50;3.00;;;;;;;17.56;41.60;101514.44;5075316;28;20045;-63
2021/05/21 01:42:16;;;;;;;3.85;2.95;;;;;;;17.54;41.63;101521.69;5075056;28;20052;-63
2021/05/21 01:44:43;;;;;;;4.55;2.42;;;;;;;17.52;42.11;101521.81;5075673;28;20048;-63
2021/05/21 01:47:11;;;;;;;5.50;2.38;;;;;;;17.51;42.00;101521.91;5075200;28;20059;-64
2021/05/21 01:49:39;;;;;;;5.00;2.47;;;;;;;17.49;42.47;101529.16;5075047;28;20060;-66
2021/05/21 01:52:06;;;;;;;5.38;2.50;;;;;;;17.48;42.58;101522.97;5074977;28;20049;-64
2021/05/21 01:54:35;;;;;;;7.65;2.85;;;;;;;17.48;42.67;101530.09;5073912;28;20055;-64
2021/05/21 01:57:03;;;;;;;5.88;2.60;;;;;;;17.46;42.48;101520.44;5074992;28;20048;-63
2021/05/21 01:59:30;;;;;;;3.95;2.13;;;;;;;17.46;42.34;101528.41;5074858;28;20045;-63
2021/05/21 02:01:57;;;;;;;5.05;2.10;;;;;;;17.45;42.16;101531.19;5074874;28;20045;-63
2021/05/21 02:04:32;;;;;;;7.07;2.30;;;;;;;17.42;42.06;101526.09;5074757;28;20052;-63
2021/05/21 02:06:59;;;;;;;3.50;2.17;;;;;;;17.39;42.18;101521.84;5074905;28;20408;-63
2021/05/21 02:09:27;;;;;;;3.83;2.30;;;;;;;17.37;41.76;101515.81;5074655;28;20045;-63
2021/05/21 02:11:54;;;;;;;4.30;2.15;;;;;;;17.37;41.90;101522.91;5074669;28;20045;-63
2021/05/21 02:14:21;;;;;;;2.75;2.10;;;;;;;17.35;41.60;101514.25;5074805;28;20511;-63
2021/05/21 02:16:48;;;;;;;4.47;2.97;;;;;;;17.33;41.77;101513.50;5074583;28;20488;-63
2021/05/21 02:19:15;;;;;;;4.25;2.22;;;;;;;17.32;42.13;101509.16;5074627;28;20086;-63
2021/05/21 02:21:45;;;;;;;6.10;2.20;;;;;;;17.30;42.24;101503.97;5074569;28;20044;-63
2021/05/21 02:24:12;;;;;;;2.58;1.90;;;;;;;17.29;42.23;101516.38;5074359;28;20511;-63
2021/05/21 02:26:39;;;;;;;5.30;2.42;;;;;;;17.27;42.53;101515.66;5074422;28;20049;-63
2021/05/21 02:29:05;;;;;;;4.60;2.50;;;;;;;17.24;42.58;101512.38;5074194;28;20045;-64
2021/05/21 02:31:32;;;;;;;7.50;2.20;;;;;;;17.22;42.74;101520.44;5074315;28;20057;-63
2021/05/21 02:33:58;;;;;;;5.15;2.60;;;;;;;17.17;42.84;101527.03;5074394;28;20044;-63
2021/05/21 02:36:25;;;;;;;3.55;2.22;;;;;;;17.11;43.22;101515.91;5074167;28;20051;-63
2021/05/21 02:38:52;;;;;;;3.67;2.42;;;;;;;17.04;43.88;101512.00;5074365;28;20078;-62
2021/05/21 02:41:20;;;;;;;2.78;2.30;;;;;;;16.99;44.23;101511.50;5074116;28;20052;-63
2021/05/21 02:43:47;;;;;;;3.45;2.50;;;;;;;16.95;44.72;101516.16;5072784;28;20048;-63
2021/05/21 02:46:14;;;;;;;4.95;2.20;;;;;;;16.94;44.96;101516.28;5073765;28;20036;-63
2021/05/21 02:48:40;;;;;;;4.72;2.38;;;;;;;16.93;45.34;101514.59;5074007;28;20045;-63
2021/05/21 02:51:07;;;;;;;6.25;2.70;;;;;;;16.91;45.48;101512.03;5073850;28;20049;-63
2021/05/21 02:53:34;;;;;;;7.55;2.70;;;;;;;16.89;45.56;101515.72;5073949;28;20390;-63
2021/05/21 02:56:01;;;;;;;3.28;2.63;;;;;;;16.88;45.60;101514.03;5073817;28;20052;-67
2021/05/21 02:58:28;;;;;;;5.40;2.95;;;;;;;16.87;45.99;101502.56;5073872;28;20048;-63
2021/05/21 03:00:54;;;;;;;4.32;3.05;;;;;;;16.85;46.14;101499.19;5073726;28;20484;-64
2021/05/21 03:03:21;;;;;;;3.50;2.85;;;;;;;16.82;47.01;101507.34;5071747;28;20044;-64
2021/05/21 03:05:48;;;;;;;4.30;2.85;;;;;;;16.79;47.53;101511.06;5070540;28;20412;-63
2021/05/21 03:08:14;;;;;;;4.10;2.50;;;;;;;16.76;47.93;101511.28;5070125;28;20060;-64
2021/05/21 03:10:41;;;;;;;4.95;3.47;;;;;;;16.75;48.12;101514.06;5070325;28;20068;-63
2021/05/21 03:13:08;;;;;;;3.15;2.80;;;;;;;16.71;48.22;101508.13;5070217;28;20049;-63
2021/05/21 03:15:35;;;;;;;4.43;3.25;;;;;;;16.72;48.80;101506.31;5070193;28;20045;-63
2021/05/21 03:18:04;;;;;;;4.80;2.83;;;;;;;16.73;48.75;101505.34;5069939;28;20067;-64
2021/05/21 03:20:30;;;;;;;4.53;2.60;;;;;;;16.73;48.85;101508.84;5070034;28;20102;-63
2021/05/21 03:22:57;;;;;;;4.05;2.72;;;;;;;16.73;49.02;101508.00;5070155;28;20044;-65
2021/05/21 03:25:24;;;;;;;3.92;2.70;;;;;;;16.73;49.13;101502.72;5069785;28;20052;-63
2021/05/21 03:27:50;;;;;;;8.10;2.75;;;;;;;16.73;49.00;101500.06;5069958;28;20074;-63
2021/05/21 03:30:17;;;;;;;4.65;2.80;;;;;;;16.72;49.30;101501.00;5069449;28;20063;-63
2021/05/21 03:32:44;;;;;;;5.18;2.63;;;;;;;16.72;49.38;101501.00;5069914;28;20049;-64
2021/05/21 03:35:11;;;;;;;4.63;2.88;;;;;;;16.72;49.43;101493.06;5069610;28;20048;-63
2021/05/21 03:37:38;;;;;;;10.15;2.90;;;;;;;16.73;49.12;101492.94;5069369;28;20044;-66
2021/05/21 03:40:05;;;;;;;5.53;2.47;;;;;;;16.75;49.30;101491.03;5069410;28;20052;-65
2021/05/21 03:42:32;;;;;;;4.63;2.40;;;;;;;16.78;49.28;101496.09;5069630;28;20044;-63
2021/05/21 03:44:59;;;;;;;6.53;2.33;;;;;;;16.79;49.68;101491.66;5069668;28;20052;-63
2021/05/21 03:47:26;;;;;;;4.03;2.45;;;;;;;16.81;49.91;101493.25;5069535;28;20045;-63
2021/05/21 03:49:53;;;;;;;3.92;2.85;;;;;;;16.81;50.10;101492.38;5069426;28;20493;-63
2021/05/21 03:52:19;;;;;;;6.40;3.10;;;;;;;16.79;50.20;101492.50;5069635;28;20063;-63
2021/05/21 03:54:47;;;;;;;4.18;2.97;;;;;;;16.78;50.67;101495.28;5069388;28;20044;-63
2021/05/21 03:57:13;;;;;;;5.53;2.67;;;;;;;16.75;50.72;101491.03;5069508;28;20051;-63
2021/05/21 03:59:40;;;;;;;4.15;2.30;;;;;;;16.73;51.08;101485.00;5069431;28;20041;-64
2021/05/21 04:02:07;;;;;;;3.60;2.58;;;;;;;16.72;51.59;101490.41;5069076;28;20045;-63
2021/05/21 04:04:34;;;;;;;8.20;2.70;;;;;;;16.71;51.51;101481.63;5069165;28;20055;-63
2021/05/21 04:07:00;;;;;;;3.83;2.55;;;;;;;16.71;51.93;101489.56;5069160;28;20055;-63
2021/05/21 04:09:30;;;;;;;4.40;2.75;;;;;;;16.73;52.07;101494.75;5069066;28;20508;-63
2021/05/21 04:11:57;;;;;;;5.97;2.67;;;;;;;16.73;52.07;101495.59;5069552;28;20402;-68
2021/05/21 04:14:24;;;;;;;5.57;3.05;;;;;;;16.73;52.08;101502.72;5069269;28;20542;-63
2021/05/21 04:16:51;;;;;;;3.67;2.80;;;;;;;16.71;52.32;101492.22;5069287;28;20049;-64
2021/05/21 04:19:18;;;;;;;5.03;2.72;;;;;;;16.73;52.30;101500.88;5069236;28;20048;-63
2021/05/21 04:21:45;;;;;;;4.10;2.85;;;;;;;16.74;52.37;101505.25;5069184;28;20052;-63
2021/05/21 04:24:12;;;;;;;6.30;3.20;;;;;;;16.76;52.61;101518.38;5075350;28;20127;-63
2021/05/21 04:26:38;;;;;;;5.55;3.25;;;;;;;16.76;52.86;101526.31;5077125;28;20044;-63
2021/05/21 04:29:05;;;;;;;5.68;3.38;;;;;;;16.78;52.81;101530.56;5085852;28;20044;-63
2021/05/21 04:31:32;;;;;;;8.20;3.40;;;;;;;16.78;52.92;101521.78;5088990;28;20060;-63
2021/05/21 04:33:59;;;;;;;8.73;3.25;;;;;;;16.78;53.30;101521.78;5089311;28;20123;-64
2021/05/21 04:36:25;;;;;;;5.45;3.47;;;;;;;16.78;53.24;101525.25;5089034;28;20048;-63
2021/05/21 04:38:52;;;;;;;5.07;3.03;;;;;;;16.78;53.27;101530.56;5089255;28;20047;-63
2021/05/21 04:41:19;;;;;;;5.32;2.70;;;;;;;16.79;53.48;101536.72;5084770;28;20048;-63
2021/05/21 04:43:46;;;;;;;7.18;2.90;;;;;;;16.77;53.20;101544.81;5068773;28;20041;-64
2021/05/21 04:46:14;;;;;;;5.50;2.80;;;;;;;16.76;53.47;101543.09;5068855;28;20052;-62
2021/05/21 04:48:42;;;;;;;6.13;3.03;;;;;;;16.77;53.50;101539.50;5068820;28;20097;-63
2021/05/21 04:51:09;;;;;;;3.85;2.72;;;;;;;16.77;53.74;101536.84;5076685;28;20036;-64
2021/05/21 04:53:37;;;;;;;5.38;2.90;;;;;;;16.78;53.49;101535.88;5071991;28;20045;-64
2021/05/21 04:56:04;;;;;;;5.57;2.85;;;;;;;16.79;53.29;101534.09;5073078;28;20044;-63
2021/05/21 04:58:31;;;;;;;4.78;2.40;;;;;;;16.81;53.29;101534.81;5079636;28;20036;-63
2021/05/21 05:00:58;;;;;;;3.88;2.53;;;;;;;16.83;53.72;101540.84;5088430;28;20048;-66
2021/05/21 05:03:25;;;;;;;5.63;2.72;;;;;;;16.86;53.40;101539.78;5088696;28;20052;-66
2021/05/21 05:05:52;;;;;;;5.32;2.83;;;;;;;16.89;53.67;101534.28;5088953;28;20075;-65
2021/05/21 05:08:18;;;;;;;4.35;2.75;;;;;;;16.92;53.83;101536.75;5088893;28;20062;-66
2021/05/21 05:10:47;;;;;;;5.68;2.90;;;;;;;16.97;53.89;101537.25;5088747;28;20040;-66
2021/05/21 05:13:16;;;;;;;4.55;2.90;;;;;;;17.01;53.84;101537.91;5090579;28;20051;-65
2021/05/21 05:15:44;;;;;;;5.15;3.25;;;;;;;17.03;53.93;101531.53;5083895;28;20088;-64
2021/05/21 05:18:11;;;;;;;6.38;3.50;;;;;;;17.05;54.20;101532.28;5072264;28;20048;-75
2021/05/21 05:20:39;;;;;;;6.45;3.85;;;;;;;17.08;54.58;101542.66;5078297;28;20044;-65
2021/05/21 05:23:10;;;;;;;7.10;3.65;;;;;;;17.10;54.29;101545.19;5090224;28;20158;-65
2021/05/21 05:25:44;;;;;;;6.32;3.90;;;;;;;17.11;54.52;101539.75;5072205;28;20404;-65
2021/05/21 05:28:12;;;;;;;5.78;4.45;;;;;;;17.13;54.71;101547.63;5072193;28;20053;-66
2021/05/21 05:30:40;;;;;;;8.23;4.32;;;;;;;17.14;54.64;101544.00;5071628;28;20106;-66
2021/05/21 05:33:06;;;;;;;7.35;4.68;;;;;;;17.17;54.81;101549.09;5074279;28;20037;-66
2021/05/21 05:35:45;;;;;;;7.90;5.03;;;;;;;17.20;55.10;101548.03;5071845;28;20051;-71
2021/05/21 05:38:12;;;;;;;10.05;5.40;;;;;;;17.27;55.19;101563.38;5077658;28;20043;-65
2021/05/21 05:40:39;;;;;;;13.65;6.18;;;;;;;17.34;55.24;101555.81;5091518;28;20578;-66
2021/05/21 05:43:06;;;;;;;9.02;5.15;;;;;;;17.40;55.40;101550.09;5092037;28;20052;-66
2021/05/21 05:45:32;;;;;;;7.15;4.45;;;;;;;17.47;55.17;101553.13;5092013;28;20044;-66
2021/05/21 05:47:59;;;;;;;12.18;2.53;;;;;;;17.57;56.01;101550.66;5090578;28;20081;-67
2021/05/21 05:50:26;;;;;;;8.82;4.13;;;;;;;17.64;56.20;101541.28;5071927;28;20049;-66
2021/05/21 05:52:54;;;;;;;9.38;3.95;;;;;;;17.68;56.32;101529.47;5071573;28;20389;-66
2021/05/21 05:55:20;;;;;;;7.65;3.85;;;;;;;17.72;55.94;101524.78;5071796;28;20528;-67
2021/05/21 05:57:47;;;;;;;6.47;4.00;;;;;;;17.71;56.08;101534.56;5071820;28;20416;-67
2021/05/21 06:00:14;;;;;;;5.65;3.65;;;;;;;17.73;55.67;101523.84;5071597;28;20049;-66
2021/05/21 06:02:41;;;;;;;7.68;4.00;;;;;;;17.74;55.49;101517.56;5071501;28;20051;-70
2021/05/21 06:05:08;;;;;;;7.28;3.85;;;;;;;17.74;55.73;101518.41;5071783;28;20048;-66
2021/05/21 06:07:35;;;;;;;6.55;3.45;;;;;;;17.76;55.43;101521.81;5071314;28;20052;-67
2021/05/21 06:10:04;;;;;;;5.65;3.30;;;;;;;17.76;55.70;101524.47;5071392;28;20056;-66
2021/05/21 06:12:31;;;;;;;5.22;3.20;;;;;;;17.79;55.48;101524.22;5080765;28;20047;-66
2021/05/21 06:14:57;;;;;;;6.43;3.55;;;;;;;17.83;55.35;101530.16;5090966;28;20040;-67
2021/05/21 06:17:25;;;;;;;7.22;3.72;;;;;;;17.85;55.90;101541.50;5091476;28;20048;-66
2021/05/21 06:19:52;;;;;;;7.13;3.45;;;;;;;17.90;55.80;101551.75;5091434;28;20488;-66
2021/05/21 06:22:18;;;;;;;5.80;3.58;;;;;;;17.91;55.63;101551.63;5091463;28;20139;-70
2021/05/21 06:24:48;;;;;;;6.75;3.55;;;;;;;17.93;55.25;101563.03;5090933;28;20058;-66
2021/05/21 06:27:15;;;;;;;6.50;3.20;;;;;;;17.94;55.31;101553.25;5074656;28;20049;-67
2021/05/21 06:29:42;;;;;;;5.50;3.30;;;;;;;17.95;55.26;101553.16;5070329;28;20048;-64
2021/05/21 06:36:03;;;;;;;8.57;4.82;;;;;;;17.95;56.02;101536.38;5086037;28;20063;-64
2021/05/21 06:38:31;;;;;;;14.27;4.60;;;;;;;17.94;56.10;101539.97;5090423;28;20048;-65
2021/05/21 06:40:58;;;;;;;10.93;4.65;;;;;;;17.93;56.27;101539.13;5090657;28;20059;-65
2021/05/21 06:43:28;;;;;;;7.18;4.10;;;;;;;17.93;56.58;101544.44;5090050;28;20113;-64
2021/05/21 06:45:55;;;;;;;6.35;3.90;;;;;;;17.92;56.51;101544.53;5079130;28;20056;-64
2021/05/21 06:48:36;;;;;;;;;;;;;;;;;;;;;
2021/05/21 06:51:24;;;;;;;6.57;3.33;;;;;;;17.92;56.93;101547.19;5066104;28;20135;-64
2021/05/21 06:53:51;;;;;;;5.95;3.83;;;;;;;17.92;56.79;101556.00;5070606;28;20488;-64
2021/05/21 06:56:19;;;;;;;6.93;4.00;;;;;;;17.93;56.87;101554.22;5069929;28;20136;-64
2021/05/21 06:58:46;;;;;;;5.78;3.58;;;;;;;17.93;56.94;101563.03;5069675;28;20067;-64
2021/05/21 07:01:13;;;;;;;4.88;3.50;;;;;;;17.93;56.51;101563.03;5069762;28;20046;-64
2021/05/21 07:03:40;;;;;;;6.10;3.72;;;;;;;17.94;56.37;101575.38;5069986;28;20131;-64
2021/05/21 07:06:07;;;;;;;6.78;4.07;;;;;;;17.91;56.20;101572.88;5069890;28;20144;-64
2021/05/21 07:08:33;;;;;;;8.93;4.50;;;;;;;17.90;56.37;101573.88;5069788;28;20048;-64
2021/05/21 07:11:00;;;;;;;8.38;4.43;;;;;;;17.89;56.31;101568.66;5069614;28;20044;-64
2021/05/21 07:13:38;;;;;;;6.75;3.92;;;;;;;17.94;56.24;101571.84;5069756;28;20063;-64
2021/05/21 07:16:14;;;;;;;8.35;4.00;;;;;;;17.95;56.55;101577.06;5067005;28;20062;-64
2021/05/21 07:18:41;;;;;;;5.53;4.03;;;;;;;17.95;56.38;101578.84;5069939;28;20074;-64
2021/05/21 07:21:08;;;;;;;6.40;4.00;;;;;;;17.99;56.76;101566.19;5069160;28;20056;-65
2021/05/21 07:23:35;;;;;;;6.63;4.40;;;;;;;18.02;56.48;101560.66;5069737;28;20147;-64
2021/05/21 07:26:02;;;;;;;8.45;3.53;;;;;;;18.04;56.47;101556.06;5070095;28;20061;-64
2021/05/21 07:28:30;;;;;;;6.05;4.07;;;;;;;18.11;56.40;101558.16;5087942;28;20059;-64
2021/05/21 07:31:00;;;;;;;7.00;4.07;;;;;;;18.16;56.00;101547.19;5089230;28;20055;-64
2021/05/21 07:33:28;;;;;;;6.68;4.00;;;;;;;18.22;56.11;101543.19;5086693;28;20056;-64
2021/05/21 07:36:09;;;;;;;5.72;3.58;;;;;;;18.27;55.54;101536.59;5058240;28;20449;-64
2021/05/21 07:38:36;;;;;;;12.75;3.70;;;;;;;18.33;55.64;101531.75;5089354;28;20418;-65
2021/05/21 07:41:03;;;;;;;7.68;3.20;;;;;;;18.37;55.74;101518.13;5088560;28;20547;-66
2021/05/21 07:43:31;;;;;;;4.75;3.17;;;;;;;18.44;55.29;101513.16;5089676;28;20109;-64
2021/05/21 07:46:01;;;;;;;5.10;3.38;;;;;;;18.48;55.55;101511.13;5089345;28;20131;-68
2021/05/21 07:48:28;;;;;;;5.28;3.28;;;;;;;18.50;55.49;101501.19;5089390;28;20074;-64
2021/05/21 07:50:55;;;;;;;5.28;3.08;;;;;;;18.52;55.67;101492.13;5083432;28;20040;-67
2021/05/21 07:53:22;;;;;;;5.32;3.35;;;;;;;18.56;55.62;101479.47;5079618;28;20048;-64
2021/05/21 07:56:17;;;;;;;5.07;3.40;;;;;;;18.61;55.47;101495.88;5086853;28;20424;-64
2021/05/21 07:58:47;;;;;;;8.38;3.42;;;;;;;18.66;55.28;101500.84;5088637;28;20052;-64
2021/05/21 08:01:14;;;;;;;6.68;3.30;;;;;;;18.74;55.68;101501.94;5089030;28;20048;-64
2021/05/21 08:03:41;;;;;;;5.35;3.35;;;;;;;18.84;55.24;101510.03;5087462;28;20056;-66
2021/05/21 08:06:11;;;;;;;9.02;3.55;;;;;;;18.95;55.23;101517.19;5079684;28;20052;-64
2021/05/21 08:08:38;;;;;;;7.90;3.20;;;;;;;19.06;55.22;101526.97;5070132;28;20507;-64
2021/05/21 08:11:08;;;;;;;6.28;3.13;;;;;;;19.18;54.70;101525.13;5078678;28;20040;-64
2021/05/21 08:13:38;;;;;;;5.03;3.08;;;;;;;19.31;55.01;101535.63;5069262;28;20093;-64
2021/05/21 08:16:12;;;;;;;5.57;3.25;;;;;;;19.41;54.61;101531.22;5069040;28;20049;-64
2021/05/21 08:18:39;;;;;;;5.82;3.17;;;;;;;19.51;54.86;101523.34;5068927;28;20048;-64
2021/05/21 08:21:07;;;;;;;7.82;3.03;;;;;;;19.62;54.61;101525.97;5068555;28;20055;-64
2021/05/21 08:23:36;;;;;;;5.07;2.88;;;;;;;19.75;54.11;101526.63;5067708;28;20130;-65
2021/05/21 08:27:22;;;;;;;3.28;2.60;;;;;;;19.81;53.89;101522.63;5063924;28;20047;-64
2021/05/21 08:29:49;;;;;;;5.00;3.00;;;;;;;19.81;53.16;101519.13;5045821;28;20049;-64
2021/05/21 08:32:19;;;;;;;4.25;2.50;;;;;;;19.78;53.10;101506.03;5046231;28;20048;-66
2021/05/21 08:35:07;;;;;;;3.35;2.70;;;;;;;19.75;53.38;101493.84;5008497;28;20464;-64
2021/05/21 08:37:35;;;;;;;4.63;3.00;;;;;;;19.74;53.09;101486.81;5068684;28;20084;-65
2021/05/21 08:40:04;;;;;;;3.58;2.60;;;;;;;19.75;53.32;101478.69;5068318;28;20050;-64
2021/05/21 08:42:36;;;;;;;3.83;2.38;;;;;;;19.84;53.09;101469.13;5080044;28;20056;-65
2021/05/21 08:45:06;;;;;;;4.35;2.70;;;;;;;19.96;52.35;101447.72;5081012;28;20048;-64
2021/05/21 08:47:36;;;;;;;3.65;2.88;;;;;;;20.08;52.35;101440.53;5069789;28;20056;-64
2021/05/21 08:50:09;;;;;;;4.47;2.90;;;;;;;20.17;51.85;101451.22;5071830;28;20057;-64
2021/05/21 08:52:37;;;;;;;4.45;2.70;;;;;;;20.21;52.08;101462.47;5072838;28;20511;-66
2021/05/21 08:55:05;;;;;;;4.20;2.75;;;;;;;20.28;51.54;101476.94;5072538;28;20135;-64
2021/05/21 08:57:46;;;;;;;5.05;2.45;;;;;;;20.42;51.77;101490.88;5072474;28;20135;-64
2021/05/21 09:00:14;;;;;;;4.60;2.60;;;;;;;20.55;51.49;101502.19;5072073;28;20106;-65
2021/05/21 09:02:42;;;;;;;4.45;2.60;;;;;;;20.72;51.51;101492.72;5072518;28;20051;-64
2021/05/21 09:05:10;;;;;;;3.85;2.85;;;;;;;20.88;51.67;101494.91;5072181;28;20049;-65
2021/05/21 09:07:42;;;;;;;4.05;2.35;;;;;;;21.10;51.02;101491.16;5072435;28;20054;-66
2021/05/21 09:10:12;;;;;;;7.18;2.83;;;;;;;21.31;49.88;101496.38;5082820;28;20403;-65
2021/05/21 09:12:59;;;;;;;5.68;2.80;;;;;;;21.59;48.91;101501.06;5092083;28;20443;-66
2021/05/21 09:15:27;;;;;;;3.78;2.35;;;;;;;21.56;48.60;101507.53;5090690;28;20064;-65
2021/05/21 09:18:08;;;;;;;3.50;2.65;;;;;;;21.48;47.74;101510.88;5089605;28;20036;-65
2021/05/21 09:20:51;;;;;;;3.40;2.30;;;;;;;21.56;47.00;101504.88;5089010;28;20044;-65
2021/05/21 09:23:18;;;;;;;5.20;2.75;;;;;;;21.52;47.22;101484.72;5089066;28;20040;-64
2021/05/21 09:25:49;;;;;;;4.07;2.47;;;;;;;21.50;46.85;101471.50;5092314;28;20056;-64
2021/05/21 09:28:37;;;;;;;5.32;2.40;;;;;;;21.76;45.62;101467.47;5091548;28;20048;-64
2021/05/21 09:31:14;;;;;;;4.57;2.50;;;;;;;22.02;44.84;101473.88;5091556;28;20067;-65
2021/05/21 09:33:50;;;;;;;4.30;2.80;;;;;;;22.24;43.94;101465.66;5092053;28;20044;-65
2021/05/21 09:36:32;;;;;;;4.13;2.22;;;;;;;22.45;43.82;101465.47;5091853;28;20064;-65
2021/05/21 09:39:00;;;;;;;3.92;2.50;;;;;;;22.58;43.64;101465.13;5092094;28;20047;-64
2021/05/21 09:41:53;;;;;;;7.03;2.60;;;;;;;22.75;43.55;101461.66;5091893;28;20044;-66
2021/05/21 09:44:21;;;;;;;4.53;3.50;;;;;;;22.88;43.79;101472.00;5080658;28;20048;-66
2021/05/21 09:46:51;;;;;;;6.78;2.97;;;;;;;23.00;43.99;101464.59;5071851;28;20090;-65
2021/05/21 09:49:35;;;;;;;6.07;3.13;;;;;;;23.12;43.14;101463.41;5071323;28;20075;-67
2021/05/21 09:52:07;;;;;;;5.38;3.17;;;;;;;23.22;42.83;101474.06;5071507;28;20132;-65
2021/05/21 09:54:51;;;;;;;4.70;2.85;;;;;;;23.34;41.68;101474.69;5071492;28;20057;-66
2021/05/21 09:57:29;;;;;;;5.90;3.25;;;;;;;23.49;40.77;101464.28;5071604;28;20485;-66
2021/05/21 09:59:56;;;;;;;5.43;3.13;;;;;;;23.61;40.23;101448.78;5070154;28;20045;-66
2021/05/21 10:02:28;;;;;;;5.00;2.78;;;;;;;23.73;40.08;101450.22;5071408;28;20056;-66
2021/05/21 10:05:00;;;;;;;5.03;2.40;;;;;;;23.86;40.56;101439.09;5070955;28;20075;-64
2021/05/21 10:07:27;;;;;;;5.35;2.97;;;;;;;23.98;40.44;101446.91;5071033;28;20413;-64
2021/05/21 10:09:54;;;;;;;7.75;3.17;;;;;;;24.09;39.98;101443.97;5071058;28;20461;-64
2021/05/21 10:12:22;;;;;;;4.35;2.65;;;;;;;24.22;39.51;101444.34;5070574;28;20052;-65
2021/05/21 10:14:50;;;;;;;6.10;3.13;;;;;;;24.38;39.32;101445.41;5071215;28;20044;-65
2021/05/21 10:17:21;;;;;;;4.65;3.35;;;;;;;24.57;39.32;101450.53;5070945;28;20048;-64
2021/05/21 10:19:53;;;;;;;4.25;2.47;;;;;;;24.56;38.85;101439.97;5071257;28;20041;-66
2021/05/21 10:22:38;;;;;;;4.20;2.65;;;;;;;24.24;38.58;101444.19;5077994;28;20110;-65
2021/05/21 10:29:23;;;;;;;4.32;2.13;;;;;;;24.29;34.85;101440.03;5008682;28;20097;-65
2021/05/21 10:33:29;;;;;;;4.10;2.47;;;;;;;24.32;35.53;101427.31;5070790;28;20142;-71
2021/05/21 10:36:38;;;;;;;3.10;2.40;;;;;;;24.02;36.45;101430.31;5066369;28;20079;-65
2021/05/21 10:47:22;;;;;;;2.38;1.70;;;;;;;24.23;36.47;101389.72;5070485;28;20059;-65
2021/05/21 10:50:13;;;;;;;2.20;1.60;;;;;;;24.42;36.01;101383.25;5090030;28;20040;-69
2021/05/21 10:52:58;;;;;;;4.72;2.45;;;;;;;24.56;35.59;101381.78;5075635;28;20086;-68
2021/05/21 10:56:20;;;;;;;3.30;2.22;;;;;;;24.75;35.17;101386.03;5059570;28;20055;-67
2021/05/21 10:58:55;;;;;;;4.30;2.30;;;;;;;24.89;35.03;101381.03;5089353;28;20590;-67
2021/05/21 11:01:26;;;;;;;;;;;;;;;25.00;34.73;101374.50;5085273;28;20067;-70
2021/05/21 11:04:04;;;;;;;3.40;2.28;;;;;;;25.06;34.54;101376.50;5070104;28;19925;-67
2021/05/21 11:06:53;;;;;;;5.90;3.08;;;;;;;25.09;34.17;101368.97;5089616;28;20105;-70
2021/05/21 11:09:28;;;;;;;3.25;2.38;;;;;;;25.10;33.74;101376.03;5078699;28;20505;-68
2021/05/21 11:12:08;;;;;;;4.43;2.08;;;;;;;25.17;34.11;101367.31;5073165;28;20045;-67
2021/05/21 11:14:40;;;;;;;3.28;2.45;;;;;;;25.25;34.24;101362.75;5070222;28;20161;-64
2021/05/21 11:17:22;;;;;;;3.33;2.35;;;;;;;25.34;34.16;101349.31;5070056;28;20044;-64
2021/05/21 11:19:50;;;;;;;6.22;2.85;;;;;;;25.43;34.00;101341.09;5069621;28;20098;-64
2021/05/21 11:22:42;;;;;;;4.18;3.10;;;;;;;25.45;33.24;101334.72;5068430;28;20125;-65
2021/05/21 11:25:16;;;;;;;3.80;2.20;;;;;;;25.51;32.99;101334.03;5069379;28;20149;-68
2021/05/21 11:27:45;;;;;;;3.95;2.30;;;;;;;25.37;31.69;101333.72;5071059;28;20057;-64
2021/05/21 11:30:19;;;;;;;3.13;2.40;;;;;;;25.23;31.55;101340.59;5084019;28;20048;-65
2021/05/21 11:32:49;;;;;;;2.55;1.40;;;;;;;25.13;31.25;101336.38;5089405;28;20518;-63
2021/05/21 11:35:29;;;;;;;;;;;;;;;;;;;;;
2021/05/21 11:37:59;;;;;;;2.72;1.90;;;;;;;25.27;30.89;101343.78;5087359;28;20070;-64
2021/05/21 11:44:41;;;;;;;2.97;2.05;;;;;;;25.31;30.82;101328.16;5069711;28;20047;-64
2021/05/21 11:47:12;;;;;;;3.35;2.10;;;;;;;25.33;30.83;101318.94;5083058;28;20059;-65
2021/05/21 11:49:39;;;;;;;4.88;1.85;;;;;;;25.34;31.16;101317.91;5089324;28;20093;-63
2021/05/21 11:52:19;;;;;;;2.80;1.65;;;;;;;25.37;30.15;101320.28;5089410;28;20141;-63
2021/05/21 11:54:47;;;;;;;2.17;1.67;;;;;;;25.40;30.10;101324.50;5089270;28;20093;-63
2021/05/21 11:57:41;;;;;;;5.60;2.08;;;;;;;25.33;30.19;101312.69;5075277;28;20047;-63
2021/05/21 12:08:41;;;;;;;4.43;1.95;;;;;;;25.02;29.69;101308.03;5006787;28;20045;-64
2021/05/21 12:11:44;;;;;;;3.92;1.90;;;;;;;24.97;29.59;101305.03;5007080;28;20237;-63